Time;durP1;ratioP1;P1;durP2;ratioP2;P2;SDS_P1;SDS_P2;PMS_P1;PMS_P2;Temp;Humidity;BMP_temperature;BMP_pressure;BME280_temperature;BME280_humidity;BME280_pressure;Samples;Min_cycle;Max_cycle;Signal;HPM_P1;HPM_P2
2021/07/16 00:02:16;;;;;;;6.72;3.30;;;21.60;99.90;;;;;;5111447;28;20111;-71
2021/07/16 00:04:42;;;;;;;3.65;2.35;;;21.70;99.90;;;;;;5109301;28;20024;-71
2021/07/16 00:07:08;;;;;;;6.80;2.80;;;21.70;99.90;;;;;;5109552;28;20020;-71
2021/07/16 00:09:33;;;;;;;3.35;2.08;;;21.70;99.90;;;;;;5111119;28;20028;-72
2021/07/16 00:11:59;;;;;;;8.50;3.28;;;21.70;99.90;;;;;;5110386;28;20495;-72
2021/07/16 00:14:25;;;;;;;9.25;2.42;;;21.60;99.90;;;;;;5109181;28;20020;-72
2021/07/16 00:16:51;;;;;;;3.80;2.38;;;21.60;99.90;;;;;;5109425;28;20481;-72
2021/07/16 00:19:16;;;;;;;6.60;2.83;;;21.70;99.90;;;;;;5108894;28;20037;-72
2021/07/16 00:21:43;;;;;;;4.47;2.58;;;21.80;99.90;;;;;;5109200;28;20103;-72
2021/07/16 00:24:11;;;;;;;5.63;2.72;;;21.80;99.90;;;;;;5110573;28;20027;-72
2021/07/16 00:26:37;;;;;;;5.47;2.88;;;21.70;99.90;;;;;;5109160;28;20035;-72
2021/07/16 00:29:03;;;;;;;5.03;2.65;;;21.60;99.90;;;;;;5109045;28;20072;-72
2021/07/16 00:31:30;;;;;;;3.50;2.90;;;21.50;99.90;;;;;;5110544;28;20058;-72
2021/07/16 00:33:56;;;;;;;5.40;3.00;;;21.40;99.90;;;;;;5110462;28;20020;-73
2021/07/16 00:36:22;;;;;;;7.10;2.97;;;21.30;99.90;;;;;;5109328;28;20034;-73
2021/07/16 00:38:49;;;;;;;11.25;3.47;;;21.30;99.90;;;;;;5108866;28;20023;-73
2021/07/16 00:41:14;;;;;;;6.35;3.83;;;21.40;99.90;;;;;;5110274;28;20081;-72
2021/07/16 00:43:40;;;;;;;3.95;2.53;;;21.60;99.90;;;;;;5110279;28;20027;-74
2021/07/16 00:46:06;;;;;;;5.90;2.85;;;21.70;99.90;;;;;;5106980;28;20028;-72
2021/07/16 00:48:32;;;;;;;8.02;3.03;;;21.80;99.90;;;;;;5104682;28;20024;-72
2021/07/16 00:51:00;;;;;;;6.38;2.83;;;21.80;99.90;;;;;;5108890;28;20027;-72
2021/07/16 00:53:26;;;;;;;9.88;3.25;;;21.70;99.90;;;;;;5110175;28;20038;-72
2021/07/16 00:55:52;;;;;;;3.60;2.83;;;21.70;99.90;;;;;;5110406;28;20019;-72
2021/07/16 00:58:18;;;;;;;6.43;2.17;;;21.70;99.90;;;;;;5112168;28;20024;-72
2021/07/16 01:00:44;;;;;;;6.22;2.58;;;21.70;99.90;;;;;;5114301;28;20099;-72
2021/07/16 01:03:10;;;;;;;4.70;2.10;;;21.80;99.90;;;;;;5114365;28;20038;-72
2021/07/16 01:05:36;;;;;;;4.20;3.58;;;21.80;99.90;;;;;;5112410;28;20024;-71
2021/07/16 01:08:03;;;;;;;6.30;3.63;;;21.90;99.90;;;;;;5112616;28;20027;-72
2021/07/16 01:10:30;;;;;;;7.25;4.57;;;21.90;99.90;;;;;;5112590;28;20400;-72
2021/07/16 01:12:56;;;;;;;4.65;3.03;;;21.70;99.90;;;;;;5113919;28;20091;-72
2021/07/16 01:15:26;;;;;;;5.05;4.13;;;21.60;99.90;;;;;;5112575;28;20015;-72
2021/07/16 01:17:53;;;;;;;5.25;4.25;;;21.50;99.90;;;;;;5112290;28;20047;-71
2021/07/16 01:20:28;;;;;;;5.72;3.13;;;21.40;99.90;;;;;;5113498;28;20030;-73
2021/07/16 01:22:55;;;;;;;8.23;5.03;;;21.30;99.90;;;;;;5113744;28;20493;-74
2021/07/16 01:25:30;;;;;;;8.45;3.33;;;21.40;99.90;;;;;;5113913;28;20044;-73
2021/07/16 01:27:59;;;;;;;7.32;3.00;;;21.60;99.90;;;;;;5112865;28;20026;-73
2021/07/16 01:30:27;;;;;;;9.07;2.88;;;21.70;99.90;;;;;;5112732;28;20391;-71
2021/07/16 01:32:53;;;;;;;9.73;3.72;;;21.60;99.90;;;;;;5113321;28;20024;-72
2021/07/16 01:35:21;;;;;;;5.20;2.70;;;21.50;99.90;;;;;;5112305;28;20097;-72
2021/07/16 01:37:53;;;;;;;5.57;3.45;;;21.40;99.90;;;;;;5112366;28;20015;-71
2021/07/16 01:40:21;;;;;;;4.88;2.78;;;21.30;99.90;;;;;;5113628;28;20062;-72
2021/07/16 01:42:50;;;;;;;6.20;2.97;;;21.40;99.90;;;;;;5113557;28;20085;-72
2021/07/16 01:45:22;;;;;;;11.18;3.65;;;21.30;99.90;;;;;;5113354;28;20028;-74
2021/07/16 01:47:57;;;;;;;5.00;2.42;;;21.30;99.90;;;;;;5113451;28;20030;-73
2021/07/16 01:50:23;;;;;;;4.25;2.55;;;21.10;99.90;;;;;;5112097;28;20084;-73
2021/07/16 01:52:50;;;;;;;10.00;2.92;;;21.10;99.90;;;;;;5111780;28;20070;-73
2021/07/16 01:55:17;;;;;;;4.35;2.78;;;21.30;99.90;;;;;;5113160;28;20073;-72
2021/07/16 01:57:57;;;;;;;5.20;2.60;;;21.40;99.90;;;;;;5112829;28;20099;-72
2021/07/16 02:00:30;;;;;;;4.45;2.38;;;21.40;99.90;;;;;;5113263;28;20024;-72
2021/07/16 02:02:59;;;;;;;6.18;2.70;;;21.40;99.90;;;;;;5113164;28;20031;-72
2021/07/16 02:05:25;;;;;;;4.38;2.50;;;21.50;99.90;;;;;;5112644;28;20028;-72
2021/07/16 02:07:53;;;;;;;8.38;3.28;;;21.50;99.90;;;;;;5111388;28;20409;-72
2021/07/16 02:10:20;;;;;;;6.15;2.63;;;21.60;99.90;;;;;;5112667;28;20023;-72
2021/07/16 02:12:47;;;;;;;4.03;2.22;;;21.40;99.90;;;;;;5112750;28;20020;-72
2021/07/16 02:15:20;;;;;;;8.27;2.67;;;21.40;99.90;;;;;;5112883;28;20015;-72
2021/07/16 02:17:47;;;;;;;8.43;2.50;;;21.50;99.90;;;;;;5111191;28;20055;-72
2021/07/16 02:20:24;;;;;;;10.02;3.03;;;21.70;99.90;;;;;;5111323;28;20042;-72
2021/07/16 02:22:51;;;;;;;9.60;2.58;;;21.70;99.90;;;;;;5112645;28;20058;-73
2021/07/16 02:25:18;;;;;;;6.25;2.85;;;21.80;99.90;;;;;;5111179;28;20393;-72
2021/07/16 02:27:49;;;;;;;7.40;3.15;;;21.80;99.90;;;;;;5111009;28;20027;-77
2021/07/16 02:30:17;;;;;;;3.92;2.38;;;21.60;99.90;;;;;;5111222;28;20027;-72
2021/07/16 02:32:44;;;;;;;6.43;2.47;;;21.50;99.90;;;;;;5110972;28;20050;-71
2021/07/16 02:35:10;;;;;;;9.38;2.53;;;21.50;99.90;;;;;;5112628;28;20027;-71
2021/07/16 02:37:37;;;;;;;2.70;2.28;;;21.60;99.90;;;;;;5112360;28;20020;-74
2021/07/16 02:40:05;;;;;;;5.68;2.47;;;21.50;99.90;;;;;;5111133;28;20023;-71
2021/07/16 02:42:30;;;;;;;3.15;2.40;;;21.50;99.90;;;;;;5112227;28;20039;-71
2021/07/16 02:44:56;;;;;;;6.97;2.83;;;21.40;99.90;;;;;;5111044;28;20107;-75
2021/07/16 02:47:22;;;;;;;4.85;2.72;;;21.40;99.90;;;;;;5103887;28;20089;-72
2021/07/16 02:49:48;;;;;;;3.38;2.58;;;21.30;99.90;;;;;;5109619;28;20492;-72
2021/07/16 02:52:13;;;;;;;6.05;2.45;;;21.20;99.90;;;;;;5112065;28;20106;-71
2021/07/16 02:54:42;;;;;;;5.95;2.38;;;21.10;99.90;;;;;;5112457;28;20019;-72
2021/07/16 02:57:08;;;;;;;12.07;2.78;;;21.10;99.90;;;;;;5112077;28;20069;-72
2021/07/16 02:59:33;;;;;;;3.70;2.60;;;21.20;99.90;;;;;;5110350;28;20424;-72
2021/07/16 03:02:00;;;;;;;3.72;2.30;;;21.20;99.90;;;;;;5111807;28;20024;-72
2021/07/16 03:04:26;;;;;;;4.40;2.40;;;21.00;99.90;;;;;;5110003;28;20019;-72
2021/07/16 03:06:53;;;;;;;6.25;2.78;;;20.90;99.90;;;;;;5111716;28;20035;-72
2021/07/16 03:09:19;;;;;;;3.22;2.78;;;21.00;99.90;;;;;;5111540;28;20229;-71
2021/07/16 03:11:45;;;;;;;4.25;2.92;;;21.20;99.90;;;;;;5110151;28;20485;-72
2021/07/16 03:14:12;;;;;;;5.70;2.35;;;21.20;99.90;;;;;;5111710;28;20027;-73
2021/07/16 03:16:37;;;;;;;13.98;3.17;;;21.10;99.90;;;;;;5110224;28;20030;-73
2021/07/16 03:19:04;;;;;;;4.53;2.92;;;20.90;99.90;;;;;;5111333;28;20028;-73
2021/07/16 03:21:33;;;;;;;4.75;2.22;;;20.80;99.90;;;;;;5110850;28;20023;-72
2021/07/16 03:23:58;;;;;;;4.07;2.83;;;20.90;99.90;;;;;;5110057;28;20482;-73
2021/07/16 03:26:24;;;;;;;3.08;2.50;;;20.90;99.90;;;;;;5109968;28;20031;-72
2021/07/16 03:28:50;;;;;;;5.18;3.05;;;20.80;99.90;;;;;;5109860;28;20056;-72
2021/07/16 03:31:16;;;;;;;3.10;2.75;;;20.90;99.90;;;;;;5111343;28;20030;-73
2021/07/16 03:33:44;;;;;;;6.20;2.47;;;21.10;99.90;;;;;;5111245;28;20031;-72
2021/07/16 03:36:09;;;;;;;7.35;3.67;;;21.00;99.90;;;;;;5111270;28;20111;-72
2021/07/16 03:38:37;;;;;;;4.97;2.97;;;21.20;99.90;;;;;;5111003;28;20095;-73
2021/07/16 03:41:07;;;;;;;6.82;2.72;;;21.20;99.90;;;;;;5111264;28;20019;-72
2021/07/16 03:43:33;;;;;;;5.35;3.10;;;21.30;99.90;;;;;;5111246;28;20027;-72
2021/07/16 03:45:58;;;;;;;7.25;2.70;;;21.40;99.90;;;;;;5110076;28;20093;-72
2021/07/16 03:48:24;;;;;;;3.90;2.72;;;21.40;99.90;;;;;;5112920;28;20027;-72
2021/07/16 03:50:50;;;;;;;4.25;2.80;;;21.30;99.90;;;;;;5117024;28;20020;-73
2021/07/16 03:53:15;;;;;;;8.43;2.90;;;21.20;99.90;;;;;;5116117;28;20070;-71
2021/07/16 03:55:42;;;;;;;3.75;2.60;;;21.20;99.90;;;;;;5114472;28;20489;-72
2021/07/16 03:58:08;;;;;;;6.88;2.83;;;21.40;99.90;;;;;;5109742;28;20023;-71
2021/07/16 04:00:34;;;;;;;5.22;2.78;;;21.50;99.90;;;;;;5109307;28;20589;-71
2021/07/16 04:03:02;;;;;;;3.92;2.35;;;21.40;99.90;;;;;;5109403;28;20051;-71
2021/07/16 04:05:32;;;;;;;3.42;2.53;;;21.30;99.90;;;;;;5110466;28;20042;-71
2021/07/16 04:08:06;;;;;;;7.15;3.00;;;21.40;99.90;;;;;;5110294;28;20381;-71
2021/07/16 04:10:34;;;;;;;9.35;2.88;;;21.30;99.90;;;;;;5109223;28;20020;-72
2021/07/16 04:13:03;;;;;;;4.93;2.88;;;21.40;99.90;;;;;;5109278;28;20027;-71
2021/07/16 04:15:29;;;;;;;6.72;2.40;;;21.40;99.90;;;;;;5109724;28;20036;-72
2021/07/16 04:17:56;;;;;;;7.43;2.85;;;21.50;99.90;;;;;;5110382;28;20172;-71
2021/07/16 04:20:23;;;;;;;5.95;2.70;;;21.70;99.90;;;;;;5110754;28;20159;-72
2021/07/16 04:22:49;;;;;;;8.80;3.45;;;21.90;99.90;;;;;;5109015;28;20662;-72
2021/07/16 04:25:19;;;;;;;7.97;3.33;;;22.00;99.90;;;;;;5110744;28;20266;-73
2021/07/16 04:27:48;;;;;;;3.05;2.75;;;22.20;99.90;;;;;;5109301;28;20031;-71
2021/07/16 04:30:16;;;;;;;8.70;2.83;;;22.20;99.90;;;;;;5110454;28;20098;-73
2021/07/16 04:32:42;;;;;;;4.82;2.78;;;22.20;99.90;;;;;;5112992;28;20028;-73
2021/07/16 04:35:09;;;;;;;5.40;3.55;;;22.20;99.90;;;;;;5113393;28;20106;-74
2021/07/16 04:37:36;;;;;;;4.53;2.35;;;22.30;99.90;;;;;;5112993;28;20035;-71
2021/07/16 04:40:04;;;;;;;6.40;3.42;;;22.40;99.90;;;;;;5113346;28;20051;-72
2021/07/16 04:42:30;;;;;;;6.72;2.63;;;22.50;99.90;;;;;;5113289;28;20019;-71
2021/07/16 04:44:55;;;;;;;3.92;2.45;;;22.70;99.90;;;;;;5114516;28;20091;-72
2021/07/16 04:47:21;;;;;;;6.75;2.97;;;22.80;99.90;;;;;;5113016;28;20470;-72
2021/07/16 04:49:49;;;;;;;3.92;3.10;;;22.90;99.90;;;;;;5109212;28;20031;-72
2021/07/16 04:52:15;;;;;;;10.23;2.88;;;23.00;99.90;;;;;;5112882;28;20020;-72
2021/07/16 04:54:43;;;;;;;5.80;2.45;;;23.10;99.90;;;;;;5113091;28;20023;-73
2021/07/16 04:57:09;;;;;;;4.57;3.22;;;23.20;99.90;;;;;;5114255;28;20043;-72
2021/07/16 04:59:36;;;;;;;5.95;2.17;;;23.20;99.90;;;;;;5114444;28;20048;-72
2021/07/16 05:02:02;;;;;;;14.35;4.85;;;23.30;99.90;;;;;;5114251;28;20034;-72
2021/07/16 05:04:27;;;;;;;3.40;2.47;;;23.40;99.90;;;;;;5114332;28;20035;-72
2021/07/16 05:06:53;;;;;;;11.27;3.92;;;23.40;99.90;;;;;;5113580;28;20024;-72
2021/07/16 05:09:19;;;;;;;17.85;3.88;;;23.50;99.90;;;;;;5113845;28;20032;-72
2021/07/16 05:11:45;;;;;;;10.73;3.42;;;23.60;99.90;;;;;;5114614;27;20031;-73
2021/07/16 05:14:11;;;;;;;2.58;2.38;;;23.80;99.90;;;;;;5113972;28;20015;-72
2021/07/16 05:16:37;;;;;;;13.15;2.67;;;23.80;99.90;;;;;;5114063;28;20400;-72
2021/07/16 05:19:03;;;;;;;2.88;2.22;;;23.80;99.90;;;;;;5112677;28;20528;-72
2021/07/16 05:21:29;;;;;;;5.03;2.30;;;23.80;99.90;;;;;;5114119;28;20106;-71
2021/07/16 05:23:55;;;;;;;6.13;2.40;;;23.90;99.90;;;;;;5113926;28;20670;-73
2021/07/16 05:26:21;;;;;;;3.33;2.50;;;24.00;99.90;;;;;;5113116;28;20047;-73
2021/07/16 05:28:49;;;;;;;5.60;2.63;;;24.20;99.90;;;;;;5113647;28;20020;-72
2021/07/16 05:31:18;;;;;;;8.23;2.38;;;24.40;99.90;;;;;;5113824;28;20144;-74
2021/07/16 05:33:45;;;;;;;14.35;3.13;;;24.40;99.90;;;;;;5112023;28;20027;-73
2021/07/16 05:36:11;;;;;;;7.07;2.47;;;24.50;99.90;;;;;;5112446;28;20378;-73
2021/07/16 05:38:37;;;;;;;6.90;2.30;;;24.60;99.90;;;;;;5112079;28;20020;-72
2021/07/16 05:41:08;;;;;;;4.00;2.58;;;24.50;99.90;;;;;;5112125;28;20020;-72
2021/07/16 05:43:35;;;;;;;6.13;2.22;;;24.50;99.90;;;;;;5111930;28;20092;-72
2021/07/16 05:46:02;;;;;;;4.78;2.30;;;24.60;99.90;;;;;;5114213;28;20027;-72
2021/07/16 05:48:28;;;;;;;5.25;1.95;;;24.70;99.90;;;;;;5114074;27;20073;-71
2021/07/16 05:50:53;;;;;;;5.97;2.40;;;24.70;99.90;;;;;;5112392;28;20024;-71
2021/07/16 05:53:19;;;;;;;2.58;2.08;;;24.80;99.90;;;;;;5112441;28;20023;-71
2021/07/16 05:55:45;;;;;;;5.65;2.63;;;24.90;99.90;;;;;;5113685;28;20091;-74
2021/07/16 05:58:11;;;;;;;5.38;2.33;;;25.00;99.90;;;;;;5113685;27;20027;-72
2021/07/16 06:00:37;;;;;;;3.75;1.85;;;25.20;99.90;;;;;;5111891;28;20019;-72
2021/07/16 06:03:04;;;;;;;3.47;2.10;;;25.30;99.90;;;;;;5111956;28;20052;-74
2021/07/16 06:05:34;;;;;;;8.55;2.33;;;25.40;99.90;;;;;;5112862;28;20381;-71
2021/07/16 06:08:00;;;;;;;4.38;2.95;;;25.30;99.90;;;;;;5111374;28;20024;-72
2021/07/16 06:10:30;;;;;;;4.75;1.77;;;25.20;99.90;;;;;;5111877;28;20393;-72
2021/07/16 06:12:56;;;;;;;5.53;2.15;;;25.30;99.90;;;;;;5112979;28;20493;-72
2021/07/16 06:15:23;;;;;;;5.22;3.55;;;25.20;99.90;;;;;;5112752;28;20076;-72
2021/07/16 06:17:49;;;;;;;6.05;3.00;;;25.40;99.90;;;;;;5112503;28;20027;-72
2021/07/16 06:20:15;;;;;;;5.38;2.95;;;25.40;99.90;;;;;;5112329;27;20386;-71
2021/07/16 06:22:44;;;;;;;10.85;3.10;;;25.30;99.90;;;;;;5111218;28;20089;-75
2021/07/16 06:25:11;;;;;;;10.07;4.70;;;25.10;99.90;;;;;;5112782;28;20365;-73
2021/07/16 06:27:39;;;;;;;7.63;3.20;;;24.80;99.90;;;;;;5111296;28;20035;-72
2021/07/16 06:30:06;;;;;;;3.92;2.90;;;24.60;99.90;;;;;;5112421;28;20015;-72
2021/07/16 06:32:32;;;;;;;6.22;3.50;;;24.60;99.90;;;;;;5112040;28;20019;-72
2021/07/16 06:35:00;;;;;;;9.13;3.40;;;24.50;99.90;;;;;;5112191;28;20076;-74
2021/07/16 06:37:26;;;;;;;9.65;3.10;;;24.60;99.90;;;;;;5112162;28;20389;-72
2021/07/16 06:39:54;;;;;;;4.65;2.80;;;24.60;99.90;;;;;;5110603;28;20022;-73
2021/07/16 06:42:19;;;;;;;8.57;2.85;;;24.60;99.90;;;;;;5112175;28;20023;-71
2021/07/16 06:44:45;;;;;;;8.63;3.42;;;24.60;99.90;;;;;;5112208;28;20122;-72
2021/07/16 06:47:11;;;;;;;5.07;3.33;;;24.80;99.90;;;;;;5111102;28;20078;-73
2021/07/16 06:49:36;;;;;;;10.20;3.45;;;24.90;99.90;;;;;;5103520;28;20024;-72
2021/07/16 06:52:02;;;;;;;9.45;3.80;;;25.00;99.90;;;;;;5110468;28;20024;-73
2021/07/16 06:54:29;;;;;;;5.03;2.72;;;25.20;99.90;;;;;;5111521;28;20112;-73
2021/07/16 06:56:55;;;;;;;11.32;3.83;;;25.40;99.90;;;;;;5109602;28;20026;-72
2021/07/16 06:59:21;;;;;;;15.95;5.03;;;25.50;99.90;;;;;;5112007;28;20027;-73
2021/07/16 07:01:48;;;;;;;17.90;3.72;;;25.70;99.90;;;;;;5111613;28;20023;-72
2021/07/16 07:04:13;;;;;;;13.27;4.07;;;25.70;99.90;;;;;;5109940;28;20039;-71
2021/07/16 07:06:39;;;;;;;2.95;2.40;;;25.80;99.90;;;;;;5109841;28;20028;-72
2021/07/16 07:09:05;;;;;;;5.93;2.63;;;25.90;99.90;;;;;;5109687;28;20028;-73
2021/07/16 07:11:31;;;;;;;7.40;2.88;;;26.00;99.90;;;;;;5111615;28;20031;-72
2021/07/16 07:13:57;;;;;;;16.63;5.90;;;26.10;99.90;;;;;;5110242;28;20028;-73
2021/07/16 07:16:23;;;;;;;16.45;6.72;;;26.10;99.90;;;;;;5111475;28;20785;-71
2021/07/16 07:18:48;;;;;;;13.48;7.57;;;26.20;99.90;;;;;;5114107;28;20035;-72
2021/07/16 07:21:14;;;;;;;15.35;6.60;;;26.20;99.90;;;;;;5112284;28;20020;-73
2021/07/16 07:23:41;;;;;;;8.13;5.55;;;26.20;99.90;;;;;;5111951;28;20047;-73
2021/07/16 07:26:07;;;;;;;8.02;3.83;;;26.20;99.90;;;;;;5112343;28;20055;-74
2021/07/16 07:28:33;;;;;;;9.30;2.92;;;26.30;99.90;;;;;;5111977;28;20085;-73
2021/07/16 07:30:59;;;;;;;4.20;3.60;;;26.40;99.90;;;;;;5109398;28;20126;-72
2021/07/16 07:33:25;;;;;;;7.25;3.40;;;26.30;99.90;;;;;;5096872;28;20035;-73
2021/07/16 07:35:50;;;;;;;6.20;3.45;;;26.20;99.90;;;;;;5106453;28;20405;-72
2021/07/16 07:38:16;;;;;;;5.60;2.95;;;26.10;99.90;;;;;;5092628;28;20035;-72
2021/07/16 07:40:42;;;;;;;8.70;3.88;;;26.00;99.90;;;;;;5109637;28;20031;-73
2021/07/16 07:43:08;;;;;;;4.70;2.38;;;26.10;99.90;;;;;;5109775;28;20023;-73
2021/07/16 07:45:34;;;;;;;5.90;3.10;;;26.20;99.90;;;;;;5109973;28;20638;-72
2021/07/16 07:48:00;;;;;;;9.75;5.05;;;26.00;99.90;;;;;;5106336;28;20035;-69
2021/07/16 07:50:26;;;;;;;8.35;4.10;;;25.80;99.90;;;;;;5089255;28;20027;-75
2021/07/16 07:52:53;;;;;;;9.48;3.08;;;25.70;99.90;;;;;;5094823;28;20031;-74
2021/07/16 07:55:21;;;;;;;7.07;4.57;;;25.60;99.90;;;;;;5109880;28;20019;-75
2021/07/16 07:57:47;;;;;;;11.20;5.93;;;25.70;99.90;;;;;;5111003;28;20020;-74
2021/07/16 08:00:20;;;;;;;11.52;8.23;;;25.70;99.90;;;;;;5110513;28;20069;-72
2021/07/16 08:02:46;;;;;;;16.65;6.50;;;25.80;99.90;;;;;;5112610;28;20520;-72
2021/07/16 08:05:13;;;;;;;6.22;4.57;;;25.80;99.90;;;;;;5108563;28;20032;-72
2021/07/16 08:07:40;;;;;;;10.68;5.18;;;25.90;99.90;;;;;;5107373;28;20035;-72
2021/07/16 08:10:09;;;;;;;4.03;2.83;;;26.10;99.90;;;;;;5111579;28;20035;-74
2021/07/16 08:12:35;;;;;;;5.90;5.07;;;26.40;99.90;;;;;;5110959;28;20027;-72
2021/07/16 08:15:02;;;;;;;7.25;6.55;;;26.60;99.90;;;;;;5105071;28;20023;-71
2021/07/16 08:17:28;;;;;;;6.90;4.32;;;26.70;99.90;;;;;;5097612;28;20027;-72
2021/07/16 08:19:54;;;;;;;5.95;3.65;;;26.80;99.90;;;;;;5109365;28;20020;-72
2021/07/16 08:22:20;;;;;;;11.15;4.63;;;26.70;99.90;;;;;;5092831;28;20024;-71
2021/07/16 08:24:46;;;;;;;10.57;3.28;;;26.70;99.90;;;;;;5090461;28;20384;-72
2021/07/16 08:27:12;;;;;;;13.48;4.50;;;26.80;99.90;;;;;;5088890;28;20074;-72
2021/07/16 08:29:37;;;;;;;4.03;3.50;;;26.80;99.90;;;;;;5102345;28;20474;-72
2021/07/16 08:32:05;;;;;;;5.22;3.33;;;26.90;99.90;;;;;;5108176;28;20517;-72
2021/07/16 08:34:31;;;;;;;6.30;2.50;;;27.00;99.90;;;;;;5099648;28;20103;-71
2021/07/16 08:36:58;;;;;;;6.97;2.97;;;27.00;99.90;;;;;;5103239;28;20028;-72
2021/07/16 08:39:23;;;;;;;12.45;3.55;;;26.70;99.90;;;;;;5091900;28;20051;-74
2021/07/16 08:41:51;;;;;;;3.30;2.60;;;26.70;99.90;;;;;;5096914;28;20062;-72
2021/07/16 08:44:17;;;;;;;6.78;2.75;;;26.50;99.90;;;;;;5109073;28;20023;-72
2021/07/16 08:46:44;;;;;;;5.75;2.95;;;26.40;99.90;;;;;;5110519;28;20028;-72
2021/07/16 08:49:14;;;;;;;6.03;2.10;;;26.50;99.90;;;;;;5110319;28;20482;-72
2021/07/16 08:51:42;;;;;;;4.40;2.78;;;26.70;99.90;;;;;;5105428;28;20390;-73
2021/07/16 08:54:15;;;;;;;3.50;2.00;;;26.90;99.90;;;;;;5109196;28;20052;-72
2021/07/16 08:56:41;;;;;;;10.30;8.10;;;26.80;99.90;;;;;;5110681;28;20016;-72
2021/07/16 08:59:08;;;;;;;4.65;3.35;;;26.70;99.90;;;;;;5110408;28;20065;-72
2021/07/16 09:01:35;;;;;;;8.10;3.95;;;26.80;99.90;;;;;;5110599;28;20027;-72
2021/07/16 09:04:04;;;;;;;7.25;5.10;;;27.10;99.90;;;;;;5109090;28;20020;-71
2021/07/16 09:06:52;;;;;;;9.15;6.40;;;27.00;99.90;;;;;;5108947;28;20031;-73
2021/07/16 09:09:21;;;;;;;9.00;6.70;;;27.20;99.90;;;;;;5108905;28;20089;-73
2021/07/16 09:11:50;;;;;;;6.43;2.83;;;27.50;99.90;;;;;;5110307;28;20397;-72
2021/07/16 09:14:30;;;;;;;7.95;2.58;;;27.60;99.90;;;;;;5110112;28;20114;-72
2021/07/16 09:17:02;;;;;;;7.88;4.07;;;27.70;99.90;;;;;;5108872;28;20111;-72
2021/07/16 09:19:29;;;;;;;7.90;6.50;;;27.60;99.90;;;;;;5112109;28;20043;-71
2021/07/16 09:22:02;;;;;;;7.68;5.97;;;27.80;99.90;;;;;;5113864;28;20031;-73
2021/07/16 09:24:27;;;;;;;4.03;2.42;;;28.50;99.90;;;;;;5113782;28;20023;-75
2021/07/16 09:26:53;;;;;;;6.20;2.70;;;28.80;99.90;;;;;;5112292;28;20034;-70
2021/07/16 09:29:33;;;;;;;4.93;3.22;;;28.70;99.90;;;;;;5113398;28;20076;-73
2021/07/16 09:32:07;;;;;;;3.83;2.83;;;28.70;99.90;;;;;;5112253;28;20023;-72
2021/07/16 09:34:34;;;;;;;5.43;3.05;;;28.90;99.90;;;;;;5113534;27;20062;-75
2021/07/16 09:37:10;;;;;;;3.25;2.22;;;29.00;99.90;;;;;;5113951;28;20015;-73
2021/07/16 09:39:37;;;;;;;6.25;2.40;;;28.50;99.90;;;;;;5113434;28;20016;-72
2021/07/16 09:42:04;;;;;;;7.20;3.08;;;28.20;99.90;;;;;;5113402;28;20076;-70
2021/07/16 09:44:40;;;;;;;3.80;2.47;;;28.10;99.90;;;;;;5112316;28;20028;-73
2021/07/16 09:47:17;;;;;;;2.58;2.25;;;27.90;99.90;;;;;;5112175;28;20062;-75
2021/07/16 09:49:44;;;;;;;4.13;2.33;;;27.40;99.90;;;;;;5111840;28;20048;-72
2021/07/16 09:52:22;;;;;;;6.93;2.47;;;27.20;99.90;;;;;;5111840;28;20129;-73
2021/07/16 09:55:08;;;;;;;4.30;2.45;;;27.30;99.90;;;;;;5111929;28;20027;-72
2021/07/16 09:57:58;;;;;;;12.30;3.03;;;27.20;99.90;;;;;;5111474;28;20719;-73
2021/07/16 10:00:28;;;;;;;4.57;2.88;;;27.00;99.90;;;;;;5111782;28;20036;-70
2021/07/16 10:02:56;;;;;;;4.10;2.72;;;26.80;99.90;;;;;;5112349;28;20504;-72
2021/07/16 10:05:23;;;;;;;4.18;2.65;;;26.70;99.90;;;;;;5113499;28;20023;-72
2021/07/16 10:07:50;;;;;;;3.05;2.25;;;26.40;99.90;;;;;;5113311;28;20024;-74
2021/07/16 10:10:21;;;;;;;4.72;2.83;;;26.20;99.90;;;;;;5112321;28;20027;-71
2021/07/16 10:12:48;;;;;;;4.82;2.25;;;26.20;99.90;;;;;;5112555;28;20084;-75
2021/07/16 10:15:16;;;;;;;7.50;3.00;;;25.90;99.90;;;;;;5113884;28;20030;-72
2021/07/16 10:17:42;;;;;;;3.88;3.30;;;25.80;99.90;;;;;;5111897;28;20507;-75
2021/07/16 10:20:13;;;;;;;5.57;2.33;;;25.80;99.90;;;;;;5112967;28;20084;-73
2021/07/16 10:22:39;;;;;;;3.20;2.67;;;25.40;99.90;;;;;;5112940;28;20050;-75
2021/07/16 10:25:08;;;;;;;10.27;3.90;;;25.20;99.90;;;;;;5112473;28;20048;-73
2021/07/16 10:27:34;;;;;;;3.08;2.10;;;25.00;99.90;;;;;;5111346;28;20035;-72
2021/07/16 10:30:17;;;;;;;7.45;3.30;;;24.90;99.90;;;;;;5112362;28;20030;-71
2021/07/16 10:32:50;;;;;;;3.10;2.05;;;24.80;99.90;;;;;;5112633;28;20027;-75
2021/07/16 10:35:22;;;;;;;11.10;7.85;;;24.60;99.90;;;;;;5112931;28;20027;-72
2021/07/16 10:37:53;;;;;;;6.20;3.10;;;24.50;99.90;;;;;;5112304;28;20024;-75
2021/07/16 10:40:41;;;;;;;4.10;3.13;;;24.60;99.90;;;;;;5109012;28;20042;-73
2021/07/16 10:43:27;;;;;;;7.55;4.30;;;24.40;99.90;;;;;;5111337;28;20031;-71
2021/07/16 10:45:57;;;;;;;8.30;4.35;;;24.20;99.90;;;;;;5109667;28;20104;-72
2021/07/16 10:48:31;;;;;;;4.72;3.45;;;24.10;99.90;;;;;;5112006;28;20024;-71
2021/07/16 10:50:58;;;;;;;7.50;4.05;;;24.00;99.90;;;;;;5106773;28;20374;-73
2021/07/16 10:53:27;;;;;;;5.05;2.60;;;23.50;99.90;;;;;;5110889;28;20026;-73
2021/07/16 10:55:55;;;;;;;5.68;3.30;;;23.20;99.90;;;;;;5112209;28;20553;-73
2021/07/16 10:58:27;;;;;;;5.05;3.53;;;22.60;99.90;;;;;;5111006;28;20028;-74
2021/07/16 11:00:55;;;;;;;4.85;4.35;;;22.40;99.90;;;;;;5110483;28;20118;-72
2021/07/16 11:03:23;;;;;;;16.52;4.43;;;22.40;99.90;;;;;;5112242;28;20035;-72
2021/07/16 11:05:55;;;;;;;4.35;3.75;;;22.50;99.90;;;;;;5112152;28;20023;-73
2021/07/16 11:08:37;;;;;;;6.93;3.42;;;22.60;99.90;;;;;;5110776;28;20036;-72
2021/07/16 11:11:12;;;;;;;9.73;3.80;;;22.40;99.90;;;;;;5110882;28;20056;-72
2021/07/16 11:13:45;;;;;;;6.50;3.15;;;22.40;99.90;;;;;;5110561;28;20062;-72
2021/07/16 11:16:41;;;;;;;5.10;3.08;;;22.70;99.90;;;;;;5111772;28;20016;-72
2021/07/16 11:19:09;;;;;;;3.50;3.20;;;22.70;99.90;;;;;;5111680;28;20023;-73
2021/07/16 11:21:52;;;;;;;6.82;2.78;;;23.00;99.90;;;;;;5111001;28;20030;-73
2021/07/16 11:24:40;;;;;;;4.53;3.40;;;23.20;99.90;;;;;;5110700;28;20024;-73
2021/07/16 11:27:11;;;;;;;5.00;3.45;;;23.30;99.90;;;;;;5113376;28;20035;-74
2021/07/16 11:29:44;;;;;;;6.60;3.55;;;23.30;99.90;;;;;;5111864;28;20028;-73
2021/07/16 11:32:15;;;;;;;5.25;3.10;;;23.30;99.90;;;;;;5110913;28;20110;-73
2021/07/16 11:34:56;;;;;;;16.63;13.30;;;23.20;99.90;;;;;;5111545;28;20028;-72
2021/07/16 11:37:38;;;;;;;4.80;3.95;;;23.20;99.90;;;;;;5111811;28;20031;-72
2021/07/16 11:40:11;;;;;;;10.18;7.40;;;23.30;99.90;;;;;;5112208;28;20062;-73
2021/07/16 11:42:58;;;;;;;9.38;4.70;;;23.30;99.90;;;;;;5110072;28;20027;-73
2021/07/16 11:45:23;;;;;;;9.95;5.75;;;23.20;99.90;;;;;;5114788;28;20019;-73
2021/07/16 11:47:50;;;;;;;6.03;3.97;;;23.20;99.90;;;;;;5112095;28;20022;-72
2021/07/16 11:50:17;;;;;;;4.32;3.10;;;23.30;99.90;;;;;;5114023;28;20024;-71
2021/07/16 11:52:49;;;;;;;10.02;5.78;;;23.40;99.90;;;;;;5113809;28;20020;-72
2021/07/16 11:55:20;;;;;;;8.48;6.00;;;23.10;99.90;;;;;;5116013;28;20023;-72
2021/07/16 11:58:03;;;;;;;7.60;3.40;;;23.10;99.90;;;;;;5118127;28;20027;-72
2021/07/16 12:00:33;;;;;;;5.68;3.67;;;22.80;99.90;;;;;;5115970;28;20031;-72
2021/07/16 12:03:23;;;;;;;3.30;2.55;;;22.60;99.90;;;;;;5110633;28;20104;-73
2021/07/16 12:05:55;;;;;;;3.60;3.30;;;22.60;99.90;;;;;;5110162;28;20026;-73
2021/07/16 12:08:31;;;;;;;6.80;4.65;;;22.60;99.90;;;;;;5111226;28;20034;-73
2021/07/16 12:11:11;;;;;;;4.53;3.92;;;22.60;99.90;;;;;;5111297;28;20027;-73
2021/07/16 12:13:40;;;;;;;2.95;2.60;;;22.70;99.90;;;;;;5111226;28;20035;-72
2021/07/16 12:16:15;;;;;;;3.95;3.20;;;22.80;99.90;;;;;;5111499;28;20047;-73
2021/07/16 12:18:42;;;;;;;4.30;3.47;;;22.60;99.90;;;;;;5109785;28;20031;-72
2021/07/16 12:21:11;;;;;;;7.82;3.25;;;22.50;99.90;;;;;;5109814;28;20107;-73
2021/07/16 12:23:38;;;;;;;4.22;3.30;;;22.50;99.90;;;;;;5111163;28;20016;-73
2021/07/16 12:26:18;;;;;;;6.35;3.35;;;22.40;99.90;;;;;;5111261;28;20466;-73
2021/07/16 12:28:45;;;;;;;6.47;3.35;;;22.50;99.90;;;;;;5109313;28;20039;-72
2021/07/16 12:31:12;;;;;;;3.75;2.97;;;22.60;99.90;;;;;;5109381;28;20494;-73
2021/07/16 12:33:41;;;;;;;5.95;3.30;;;22.70;99.90;;;;;;5110754;28;20032;-72
2021/07/16 12:36:20;;;;;;;4.45;2.88;;;22.90;99.90;;;;;;5111103;28;20022;-73
2021/07/16 12:38:48;;;;;;;4.63;2.72;;;23.10;99.90;;;;;;5112077;28;20024;-73
2021/07/16 12:41:14;;;;;;;6.43;2.88;;;23.30;99.90;;;;;;5109990;28;20051;-74
2021/07/16 12:43:44;;;;;;;4.53;3.38;;;23.60;99.90;;;;;;5111915;28;20454;-73
2021/07/16 12:46:22;;;;;;;4.53;3.25;;;24.00;99.90;;;;;;5111930;28;20032;-76
2021/07/16 12:48:51;;;;;;;2.50;2.38;;;24.20;99.90;;;;;;5110590;28;20501;-75
2021/07/16 12:51:22;;;;;;;10.52;2.85;;;24.50;99.90;;;;;;5113314;28;20024;-74
2021/07/16 12:53:50;;;;;;;2.20;2.00;;;24.80;99.90;;;;;;5115003;27;20031;-72